Time;durP1;ratioP1;P1;durP2;ratioP2;P2;SDS_P1;SDS_P2;PMS_P1;PMS_P2;Temp;Humidity;BMP_temperature;BMP_pressure;BME280_temperature;BME280_humidity;BME280_pressure;Samples;Min_cycle;Max_cycle;Signal;HPM_P1;HPM_P2
2020/12/20 00:01:49;;;;;;;4.27;3.50;;;;;;;6.34;68.76;95814.25;5090354;28;20184;-77
2020/12/20 00:04:15;;;;;;;6.13;3.90;;;;;;;6.40;68.33;95808.63;5070681;28;20299;-77
2020/12/20 00:06:42;;;;;;;5.63;4.03;;;;;;;6.39;68.45;95812.16;5090466;28;20555;-78
2020/12/20 00:09:16;;;;;;;4.33;3.33;;;;;;;6.37;68.68;95814.03;5091095;28;20570;-77
2020/12/20 00:11:43;;;;;;;4.03;3.33;;;;;;;6.35;68.95;95810.72;5073800;28;20180;-77
2020/12/20 00:14:27;;;;;;;5.17;3.13;;;;;;;6.38;68.99;95807.13;5079533;28;20208;-77
2020/12/20 00:17:00;;;;;;;6.90;3.67;;;;;;;6.40;68.89;95816.38;5078650;28;20256;-77
2020/12/20 00:19:26;;;;;;;5.83;3.70;;;;;;;6.41;68.94;95812.84;5091254;28;20180;-77
2020/12/20 00:22:05;;;;;;;4.97;3.67;;;;;;;6.45;68.34;95810.88;5073617;28;20233;-76
2020/12/20 00:24:31;;;;;;;4.50;3.37;;;;;;;6.44;68.55;95810.03;5072319;28;20218;-77
2020/12/20 00:26:57;;;;;;;4.23;3.57;;;;;;;6.39;68.68;95812.16;5073285;28;20184;-77
2020/12/20 00:29:22;;;;;;;5.53;3.50;;;;;;;6.43;68.63;95818.72;5056473;28;20273;-76
2020/12/20 00:31:48;;;;;;;4.63;3.23;;;;;;;6.40;68.53;95818.13;5073041;28;20229;-77
2020/12/20 00:34:14;;;;;;;7.53;3.47;;;;;;;6.39;68.97;95812.16;5071756;28;20201;-77
2020/12/20 00:36:45;;;;;;;4.10;3.47;;;;;;;6.39;69.21;95812.16;5073001;28;20173;-77
2020/12/20 00:39:10;;;;;;;6.13;3.53;;;;;;;6.43;68.74;95813.56;5056528;28;20173;-76
2020/12/20 00:41:36;;;;;;;4.60;3.40;;;;;;;6.35;69.46;95810.72;5091344;28;20231;-77
2020/12/20 00:44:01;;;;;;;5.33;3.57;;;;;;;6.32;69.26;95812.72;5070814;28;20200;-77
2020/12/20 00:46:27;;;;;;;5.43;3.13;;;;;;;6.34;69.29;95810.84;5069668;28;20178;-78
2020/12/20 00:48:52;;;;;;;4.73;3.50;;;;;;;6.39;69.00;95803.59;5063999;28;20215;-77
2020/12/20 00:51:17;;;;;;;5.40;3.50;;;;;;;6.34;69.06;95796.19;5073025;28;20173;-77
2020/12/20 00:53:42;;;;;;;5.23;3.63;;;;;;;6.33;69.18;95793.72;5080680;28;20245;-77
2020/12/20 00:56:12;;;;;;;4.60;3.40;;;;;;;6.33;68.84;95796.31;5054748;28;20195;-77
2020/12/20 00:58:37;;;;;;;5.70;3.57;;;;;;;6.34;68.68;95791.03;5056521;28;20290;-77
2020/12/20 01:01:02;;;;;;;5.07;3.27;;;;;;;6.36;68.71;95783.16;5056649;28;20609;-77
2020/12/20 01:03:28;;;;;;;4.07;3.00;;;;;;;6.31;68.81;95788.69;5059013;28;20191;-77
2020/12/20 01:05:53;;;;;;;4.23;2.80;;;;;;;6.35;68.36;95784.94;5088771;28;20207;-76
2020/12/20 01:08:18;;;;;;;5.00;3.60;;;;;;;6.38;68.48;95789.88;5059737;28;20200;-77
2020/12/20 01:10:44;;;;;;;7.07;3.37;;;;;;;6.43;67.89;95785.16;5076389;28;20183;-77
2020/12/20 01:13:09;;;;;;;3.60;3.00;;;;;;;6.51;67.63;95787.19;5076510;28;20695;-76
2020/12/20 01:15:34;;;;;;;4.63;3.40;;;;;;;6.53;67.64;95793.84;5092238;28;20671;-77
2020/12/20 01:18:00;;;;;;;4.67;3.23;;;;;;;6.47;67.88;95789.19;5094444;28;20268;-77
2020/12/20 01:20:25;;;;;;;5.87;3.47;;;;;;;6.56;67.61;95797.16;5076129;28;20181;-76
2020/12/20 01:22:50;;;;;;;4.60;3.50;;;;;;;6.47;68.35;95791.75;5059647;28;20185;-77
2020/12/20 01:25:16;;;;;;;4.37;3.30;;;;;;;6.45;68.48;95791.06;5071599;28;20765;-77
2020/12/20 01:27:41;;;;;;;4.87;3.47;;;;;;;6.42;68.26;95783.53;5059440;28;20196;-77
2020/12/20 01:30:07;;;;;;;5.70;3.73;;;;;;;6.36;68.90;95796.06;5092640;28;20191;-77
2020/12/20 01:32:32;;;;;;;5.03;3.23;;;;;;;6.32;69.00;95794.66;5059525;28;20176;-77
2020/12/20 01:34:58;;;;;;;5.77;3.50;;;;;;;6.34;68.81;95796.19;5094086;28;20201;-77
2020/12/20 01:37:23;;;;;;;3.80;3.30;;;;;;;6.28;68.76;95799.25;5074870;28;20222;-78
2020/12/20 01:39:48;;;;;;;6.73;3.87;;;;;;;6.19;69.36;95800.75;5075830;28;20275;-77
2020/12/20 01:42:14;;;;;;;5.47;4.10;;;;;;;6.26;69.42;95803.69;5076075;28;20571;-77
2020/12/20 01:44:39;;;;;;;4.43;3.60;;;;;;;6.26;69.08;95808.84;5059277;28;20243;-78
2020/12/20 01:47:05;;;;;;;8.00;3.80;;;;;;;6.23;69.22;95809.06;5054666;28;20224;-78
2020/12/20 01:49:30;;;;;;;3.57;3.23;;;;;;;6.20;69.51;95811.88;5091686;28;20287;-77
2020/12/20 01:51:56;;;;;;;6.50;3.50;;;;;;;6.18;69.60;95809.44;5093908;28;20176;-77
2020/12/20 01:54:21;;;;;;;6.50;3.10;;;;;;;6.20;69.78;95804.16;5075855;28;20196;-78
2020/12/20 01:56:47;;;;;;;5.27;4.00;;;;;;;6.14;69.57;95799.44;5056722;28;20354;-77
2020/12/20 01:59:13;;;;;;;4.10;3.63;;;;;;;6.18;70.02;95798.28;5072293;28;20174;-77
2020/12/20 02:01:38;;;;;;;5.07;3.83;;;;;;;6.13;69.98;95790.88;5075508;28;20200;-77
2020/12/20 02:04:03;;;;;;;6.53;3.30;;;;;;;6.09;70.24;95791.22;5075527;28;20291;-77
2020/12/20 02:06:29;;;;;;;4.87;3.63;;;;;;;6.15;70.65;95789.00;5058362;28;20203;-77
2020/12/20 02:08:54;;;;;;;4.57;3.57;;;;;;;6.15;71.44;95793.34;5073181;28;20212;-78
2020/12/20 02:11:19;;;;;;;5.13;3.60;;;;;;;6.13;72.10;95790.06;5058693;28;20215;-77
2020/12/20 02:13:48;;;;;;;4.37;3.57;;;;;;;6.07;72.48;95791.34;5075378;28;20550;-77
2020/12/20 02:16:14;;;;;;;3.50;3.10;;;;;;;6.05;73.29;95789.81;5075080;28;20181;-77
2020/12/20 02:18:40;;;;;;;4.73;3.43;;;;;;;6.07;73.29;95790.53;5076965;28;20184;-76
2020/12/20 02:21:13;;;;;;;5.50;2.97;;;;;;;6.06;73.70;95792.28;5088768;28;20173;-77
2020/12/20 02:23:42;;;;;;;2.83;2.50;;;;;;;6.11;74.15;95786.78;5061103;28;20550;-77
2020/12/20 02:26:10;;;;;;;4.87;2.97;;;;;;;6.21;74.30;95785.16;5075402;28;20177;-77
2020/12/20 02:28:35;;;;;;;6.87;2.90;;;;;;;6.22;74.19;95786.81;5091588;28;20211;-77
2020/12/20 02:31:00;;;;;;;4.97;3.53;;;;;;;6.30;74.58;95776.72;5074991;28;20188;-78
2020/12/20 02:33:26;;;;;;;5.10;2.77;;;;;;;6.26;74.54;95770.16;5075030;28;20290;-77
2020/12/20 02:35:51;;;;;;;3.80;3.40;;;;;;;6.24;74.38;95783.16;5091550;28;20200;-77
2020/12/20 02:38:17;;;;;;;5.67;3.07;;;;;;;6.25;74.65;95781.41;5074861;28;20185;-77
2020/12/20 02:40:42;;;;;;;4.20;2.70;;;;;;;6.19;74.46;95774.16;5073256;28;20697;-77
2020/12/20 02:43:07;;;;;;;3.60;3.10;;;;;;;6.11;74.81;95771.31;5092814;28;20188;-77
2020/12/20 02:45:33;;;;;;;5.40;3.20;;;;;;;6.12;74.74;95770.38;5074800;28;20196;-77
2020/12/20 02:47:58;;;;;;;3.50;2.70;;;;;;;6.07;74.85;95781.03;5057937;28;20200;-77
2020/12/20 02:50:23;;;;;;;4.63;3.07;;;;;;;6.02;74.84;95772.81;5088473;28;20181;-77
2020/12/20 02:52:49;;;;;;;4.23;2.90;;;;;;;5.99;75.14;95773.03;5086291;28;20177;-76
2020/12/20 02:55:14;;;;;;;3.50;2.80;;;;;;;6.03;75.22;95776.22;5074477;28;20262;-77
2020/12/20 02:57:39;;;;;;;3.30;2.77;;;;;;;6.03;75.75;95769.31;5092782;28;20187;-77
2020/12/20 03:00:05;;;;;;;3.17;2.40;;;;;;;6.09;75.80;95775.75;5092436;28;20202;-77
2020/12/20 03:02:30;;;;;;;3.47;2.40;;;;;;;6.18;76.36;95777.63;5073277;28;20180;-78
2020/12/20 03:04:55;;;;;;;2.97;2.27;;;;;;;6.20;76.47;95773.22;5070908;28;20205;-77
2020/12/20 03:07:20;;;;;;;5.37;2.10;;;;;;;6.32;76.80;95771.44;5072178;28;20185;-77
2020/12/20 03:09:46;;;;;;;3.67;2.40;;;;;;;6.39;76.76;95770.88;5053965;28;20239;-78
2020/12/20 03:12:11;;;;;;;5.10;2.50;;;;;;;6.47;76.76;95776.28;5079595;28;20280;-78
2020/12/20 03:14:36;;;;;;;4.73;2.30;;;;;;;6.64;76.50;95769.81;5074085;28;20571;-77
2020/12/20 03:17:02;;;;;;;3.53;2.00;;;;;;;6.79;76.41;95773.78;5074160;28;20184;-78
2020/12/20 03:19:27;;;;;;;5.33;1.90;;;;;;;6.95;76.13;95770.84;5091911;28;20177;-77
2020/12/20 03:21:52;;;;;;;4.47;1.80;;;;;;;7.05;76.06;95774.34;5091086;28;20253;-77
2020/12/20 03:24:18;;;;;;;5.20;1.77;;;;;;;7.24;75.56;95772.88;5083701;28;20695;-77
2020/12/20 03:26:43;;;;;;;3.10;2.23;;;;;;;7.28;75.70;95771.72;5074045;28;20187;-77
2020/12/20 03:29:08;;;;;;;2.10;1.83;;;;;;;7.28;75.83;95769.94;5073570;28;20216;-77
2020/12/20 03:31:34;;;;;;;3.70;2.03;;;;;;;7.25;75.88;95769.38;5074062;28;20179;-77
2020/12/20 03:33:59;;;;;;;4.20;1.63;;;;;;;7.31;76.13;95771.47;5071750;28;20204;-78
2020/12/20 03:36:24;;;;;;;2.77;1.67;;;;;;;7.42;75.63;95774.03;5092013;28;20191;-76
2020/12/20 03:38:50;;;;;;;5.00;2.00;;;;;;;7.53;75.34;95773.16;5073333;28;20181;-76
2020/12/20 03:41:15;;;;;;;4.43;2.00;;;;;;;7.42;75.41;95768.88;5091954;28;20271;-77
2020/12/20 03:43:41;;;;;;;3.60;1.90;;;;;;;7.83;73.66;95764.69;5090509;28;20192;-77
2020/12/20 03:46:06;;;;;;;2.50;1.77;;;;;;;7.75;73.81;95772.25;5091797;28;20208;-77
2020/12/20 03:48:31;;;;;;;4.03;1.60;;;;;;;7.82;73.62;95765.63;5091584;28;20274;-77
2020/12/20 03:50:57;;;;;;;2.73;1.87;;;;;;;7.78;73.64;95767.66;5090351;28;20271;-77
2020/12/20 03:53:22;;;;;;;2.57;1.57;;;;;;;7.75;73.63;95765.28;5073773;28;20169;-77
2020/12/20 03:55:48;;;;;;;2.40;1.60;;;;;;;7.83;73.17;95772.44;5068086;28;20240;-78
2020/12/20 03:58:13;;;;;;;2.43;1.50;;;;;;;7.79;73.10;95771.88;5067228;28;20201;-77
2020/12/20 04:00:39;;;;;;;3.83;1.80;;;;;;;7.79;73.07;95768.47;5053334;28;20177;-77
2020/12/20 04:03:04;;;;;;;4.00;1.70;;;;;;;7.77;73.12;95762.59;5071573;28;20696;-77
2020/12/20 04:05:30;;;;;;;3.60;1.83;;;;;;;7.68;73.31;95761.56;5060244;28;20208;-77
2020/12/20 04:07:55;;;;;;;3.67;1.60;;;;;;;7.70;73.40;95748.53;5073487;28;20211;-77
2020/12/20 04:10:20;;;;;;;2.63;1.63;;;;;;;7.61;73.59;95745.75;5073270;28;20176;-77
2020/12/20 04:12:46;;;;;;;5.57;2.13;;;;;;;7.77;72.92;95754.81;5073580;28;20664;-77
2020/12/20 04:15:11;;;;;;;2.77;1.57;;;;;;;7.95;71.86;95763.66;5072547;28;20699;-76
2020/12/20 04:17:36;;;;;;;2.03;1.30;;;;;;;7.91;72.09;95752.75;5058857;28;20187;-77
2020/12/20 04:20:02;;;;;;;3.33;1.40;;;;;;;7.84;72.28;95758.56;5091361;28;20176;-77
2020/12/20 04:22:27;;;;;;;3.23;1.27;;;;;;;7.95;71.40;95753.31;5073345;28;20590;-76
2020/12/20 04:24:52;;;;;;;2.90;1.43;;;;;;;7.81;72.08;95746.72;5073169;28;20264;-78
2020/12/20 04:27:17;;;;;;;1.93;1.27;;;;;;;7.72;72.55;95744.88;5071461;28;20829;-77
2020/12/20 04:29:43;;;;;;;2.90;1.40;;;;;;;7.73;72.50;95741.34;5069505;28;20217;-77
2020/12/20 04:32:08;;;;;;;2.20;1.40;;;;;;;7.70;72.39;95740.78;5074786;28;20221;-77
2020/12/20 04:34:34;;;;;;;3.27;1.53;;;;;;;7.64;72.70;95745.50;5057372;28;20204;-77
2020/12/20 04:36:59;;;;;;;3.43;1.50;;;;;;;7.56;73.32;95760.81;5059490;28;20188;-78
2020/12/20 04:39:24;;;;;;;3.37;1.63;;;;;;;7.70;73.01;95774.41;5075406;28;20184;-77
2020/12/20 04:41:50;;;;;;;4.97;2.70;;;;;;;7.61;70.71;95771.59;5095302;28;20173;-78
2020/12/20 04:44:15;;;;;;;3.40;2.47;;;;;;;7.29;70.09;95773.34;5076988;28;20196;-78
2020/12/20 04:46:40;;;;;;;3.43;2.67;;;;;;;7.17;70.29;95766.59;5077271;28;20192;-77
2020/12/20 04:49:06;;;;;;;4.70;2.53;;;;;;;6.99;70.56;95768.84;5074675;28;20208;-77
2020/12/20 04:51:33;;;;;;;3.00;2.70;;;;;;;6.82;70.72;95768.41;5056773;28;20259;-77
2020/12/20 04:53:59;;;;;;;3.93;3.10;;;;;;;6.90;70.26;95767.81;5056667;28;20201;-78
2020/12/20 04:56:27;;;;;;;4.97;2.90;;;;;;;6.73;69.70;95768.31;5061771;28;20184;-77
2020/12/20 04:58:53;;;;;;;4.33;3.20;;;;;;;6.49;70.85;95765.84;5059574;28;20263;-77
2020/12/20 05:01:18;;;;;;;5.10;3.03;;;;;;;6.38;71.56;95766.66;5093841;28;20180;-78
2020/12/20 05:03:43;;;;;;;4.07;3.17;;;;;;;6.46;72.21;95760.91;5094849;28;20177;-77
2020/12/20 05:06:10;;;;;;;3.53;3.00;;;;;;;6.37;72.13;95771.94;5076830;28;20188;-77
2020/12/20 05:08:35;;;;;;;7.57;2.80;;;;;;;6.29;72.86;95776.84;5066941;28;20608;-77
2020/12/20 05:11:00;;;;;;;4.23;2.70;;;;;;;6.25;73.51;95774.50;5073138;28;20185;-77
2020/12/20 05:13:39;;;;;;;4.57;2.60;;;;;;;6.32;74.05;95774.03;5056452;28;20220;-77
2020/12/20 05:16:05;;;;;;;4.03;2.70;;;;;;;6.29;74.40;95766.53;5056275;28;20173;-77
2020/12/20 05:18:30;;;;;;;3.37;2.30;;;;;;;6.23;74.71;95760.06;5051154;28;20196;-78
2020/12/20 05:20:56;;;;;;;4.40;2.50;;;;;;;6.30;74.44;95774.16;5078031;28;20181;-78
2020/12/20 05:23:21;;;;;;;3.27;2.70;;;;;;;6.43;73.83;95759.38;5056432;28;20225;-78
2020/12/20 05:25:46;;;;;;;4.53;2.90;;;;;;;6.28;74.32;95768.31;5056055;28;20579;-77
2020/12/20 05:28:21;;;;;;;4.80;2.90;;;;;;;6.29;74.34;95775.09;5059495;28;20196;-78
2020/12/20 05:30:47;;;;;;;5.77;3.10;;;;;;;6.22;74.41;95768.75;5098297;28;20176;-76
2020/12/20 05:33:26;;;;;;;3.83;2.80;;;;;;;6.32;73.96;95768.88;5081585;28;20181;-76
2020/12/20 05:36:03;;;;;;;4.57;2.90;;;;;;;6.18;74.40;95775.06;5093340;28;20196;-78
2020/12/20 05:38:29;;;;;;;4.43;2.77;;;;;;;6.15;74.67;95772.72;5058127;28;20172;-78
2020/12/20 05:40:54;;;;;;;8.00;4.07;;;;;;;6.31;73.92;95773.22;5058937;28;20184;-77
2020/12/20 05:43:24;;;;;;;4.90;3.10;;;;;;;6.23;73.92;95772.97;5059204;28;20203;-78
2020/12/20 05:45:49;;;;;;;4.53;3.10;;;;;;;6.15;73.34;95767.56;5075728;28;20211;-78
2020/12/20 05:48:22;;;;;;;3.73;2.97;;;;;;;6.22;73.42;95768.75;5058985;28;20880;-78
2020/12/20 05:51:00;;;;;;;4.07;3.13;;;;;;;6.16;73.55;95764.88;5085358;28;20624;-79
2020/12/20 05:53:31;;;;;;;6.10;2.80;;;;;;;6.15;73.99;95760.66;5075852;28;20215;-77
2020/12/20 05:56:01;;;;;;;4.70;3.00;;;;;;;6.16;73.91;95758.88;5093796;28;20578;-77
2020/12/20 05:58:34;;;;;;;3.93;2.83;;;;;;;6.17;73.53;95761.34;5059238;28;20187;-78
2020/12/20 06:01:00;;;;;;;5.77;3.13;;;;;;;6.08;74.03;95766.38;5090428;28;20264;-76
2020/12/20 06:03:26;;;;;;;4.43;3.00;;;;;;;6.04;73.90;95768.38;5075438;28;20192;-77
2020/12/20 06:05:51;;;;;;;4.60;3.03;;;;;;;6.03;74.37;95771.88;5075737;28;20207;-76
2020/12/20 06:08:22;;;;;;;6.63;3.40;;;;;;;6.01;74.25;95778.06;5075551;28;20572;-77
2020/12/20 06:10:56;;;;;;;4.17;2.93;;;;;;;6.03;74.39;95777.03;5073518;28;20683;-77
2020/12/20 06:13:23;;;;;;;7.53;3.50;;;;;;;6.03;74.48;95771.88;5058442;28;20579;-76
2020/12/20 06:15:56;;;;;;;5.57;3.10;;;;;;;6.03;74.52;95778.81;5093464;28;20200;-78
2020/12/20 06:18:26;;;;;;;4.20;2.70;;;;;;;6.03;74.97;95774.47;5092322;28;20218;-76
2020/12/20 06:20:54;;;;;;;6.03;3.40;;;;;;;6.02;75.29;95779.75;5093215;28;20203;-77
2020/12/20 06:23:25;;;;;;;2.93;2.00;;;;;;;6.20;75.70;95786.09;5067655;28;20206;-76
2020/12/20 06:25:51;;;;;;;3.10;1.80;;;;;;;6.43;76.22;95777.44;5058436;28;20209;-77
2020/12/20 06:28:27;;;;;;;2.13;1.53;;;;;;;6.78;75.39;95784.22;5074921;28;20209;-77
2020/12/20 06:30:57;;;;;;;3.47;1.83;;;;;;;6.79;75.80;95794.44;5091800;28;20253;-76
2020/12/20 06:33:44;;;;;;;3.97;2.60;;;;;;;6.81;75.93;95791.75;5073732;28;20247;-77
2020/12/20 06:36:12;;;;;;;3.40;2.10;;;;;;;6.80;76.35;95793.53;5074851;28;20202;-77
2020/12/20 06:38:38;;;;;;;5.00;2.90;;;;;;;6.82;76.34;95795.97;5074326;28;20351;-77
2020/12/20 06:41:03;;;;;;;4.10;2.83;;;;;;;6.81;76.62;95802.09;5074972;28;20268;-77
2020/12/20 06:43:30;;;;;;;4.60;2.90;;;;;;;6.86;76.47;95805.13;5091511;28;20639;-77
2020/12/20 06:45:56;;;;;;;4.13;2.30;;;;;;;6.82;76.48;95804.53;5057931;28;20296;-77
2020/12/20 06:48:35;;;;;;;3.57;3.03;;;;;;;6.68;75.57;95798.78;5091603;28;20287;-77
2020/12/20 06:51:01;;;;;;;3.97;3.30;;;;;;;6.61;75.87;95795.03;5074788;28;20180;-78
2020/12/20 06:53:45;;;;;;;3.80;2.90;;;;;;;6.49;76.31;95805.34;5090253;28;20233;-76
2020/12/20 06:56:14;;;;;;;4.70;3.80;;;;;;;6.46;76.56;95809.94;5092676;28;20176;-77
2020/12/20 06:58:39;;;;;;;4.00;3.33;;;;;;;6.39;76.81;95809.56;5054288;28;20184;-78
2020/12/20 07:01:05;;;;;;;3.57;3.07;;;;;;;6.35;77.01;95809.91;5054548;28;20181;-77
2020/12/20 07:03:36;;;;;;;4.17;2.70;;;;;;;6.29;77.25;95811.19;5054609;28;20234;-77
2020/12/20 07:06:07;;;;;;;5.10;2.50;;;;;;;6.29;77.47;95813.78;5079574;28;20180;-77
2020/12/20 07:08:33;;;;;;;3.47;2.57;;;;;;;6.26;77.05;95811.41;5092165;28;20306;-77
2020/12/20 07:10:59;;;;;;;2.60;2.40;;;;;;;6.24;77.19;95814.13;5091093;28;20204;-77
2020/12/20 07:13:31;;;;;;;5.47;3.00;;;;;;;6.23;77.75;95822.78;5090605;28;20221;-77
2020/12/20 07:16:12;;;;;;;3.83;2.80;;;;;;;6.21;77.83;95818.69;5087660;28;20236;-78
2020/12/20 07:18:57;;;;;;;5.07;3.00;;;;;;;6.23;77.86;95824.53;5055349;28;20204;-77
2020/12/20 07:21:22;;;;;;;3.63;2.60;;;;;;;6.18;77.95;95821.47;5092064;28;20183;-78
2020/12/20 07:23:52;;;;;;;3.77;2.57;;;;;;;6.17;77.82;95828.38;5091988;28;20195;-77
2020/12/20 07:26:18;;;;;;;2.83;2.53;;;;;;;6.19;77.94;95825.72;5069794;28;20223;-77
2020/12/20 07:28:43;;;;;;;4.43;2.93;;;;;;;6.16;78.02;95826.75;5073593;28;20250;-78
2020/12/20 07:31:16;;;;;;;6.00;3.10;;;;;;;6.16;78.03;95825.94;5074269;28;20176;-78
2020/12/20 07:33:43;;;;;;;6.87;3.50;;;;;;;6.14;78.37;95827.81;5090977;28;20215;-77
2020/12/20 07:36:08;;;;;;;6.07;3.83;;;;;;;6.12;78.58;95827.09;5071889;28;20197;-77
2020/12/20 07:38:34;;;;;;;5.70;3.63;;;;;;;6.20;76.45;95827.38;5056658;28;20184;-76
2020/12/20 07:40:59;;;;;;;3.57;3.20;;;;;;;6.08;76.05;95833.41;5091915;28;20180;-77
2020/12/20 07:43:24;;;;;;;4.20;3.57;;;;;;;5.98;76.00;95828.13;5074008;28;20208;-77
2020/12/20 07:46:06;;;;;;;4.87;3.33;;;;;;;5.91;75.96;95830.31;5073795;28;20667;-76
2020/12/20 07:48:31;;;;;;;5.73;4.00;;;;;;;5.87;76.27;95838.34;5055939;28;20293;-77
2020/12/20 07:51:29;;;;;;;5.27;3.60;;;;;;;5.75;77.16;95837.50;5073554;28;20207;-77
2020/12/20 07:53:57;;;;;;;4.47;3.93;;;;;;;5.81;77.33;95831.88;5012830;28;20221;-77
2020/12/20 07:56:39;;;;;;;7.10;4.07;;;;;;;5.78;76.83;95839.84;4996264;28;20401;-77
2020/12/20 07:59:10;;;;;;;6.27;4.67;;;;;;;5.82;77.93;95836.09;5028138;28;20183;-77
2020/12/20 08:01:37;;;;;;;4.50;4.10;;;;;;;5.81;78.26;95839.63;5012550;28;20186;-77
2020/12/20 08:04:10;;;;;;;6.30;5.40;;;;;;;5.87;78.55;95841.75;5029270;28;20272;-78
2020/12/20 08:06:41;;;;;;;11.23;7.80;;;;;;;5.86;79.02;95839.31;5011860;28;20666;-78
2020/12/20 08:09:17;;;;;;;6.53;5.83;;;;;;;5.85;78.88;95846.22;5028086;28;20250;-77
2020/12/20 08:11:44;;;;;;;4.50;3.47;;;;;;;5.99;78.08;95852.94;4993157;28;20566;-82
2020/12/20 08:14:11;;;;;;;3.30;3.00;;;;;;;5.92;77.63;95842.28;5026710;28;20632;-77
2020/12/20 08:16:38;;;;;;;4.10;3.13;;;;;;;5.86;77.19;95842.69;5009338;28;20225;-78
2020/12/20 08:19:05;;;;;;;8.33;4.93;;;;;;;5.77;77.60;95843.38;4995849;28;20187;-79
2020/12/20 08:21:49;;;;;;;7.93;5.90;;;;;;;5.72;78.05;95842.03;5020656;28;20182;-78
2020/12/20 08:24:15;;;;;;;9.27;6.23;;;;;;;5.75;78.43;95841.84;5012323;28;20321;-78
2020/12/20 08:26:41;;;;;;;6.93;4.80;;;;;;;5.72;78.85;95842.84;5012547;28;20194;-77
2020/12/20 08:29:07;;;;;;;4.87;3.80;;;;;;;5.83;78.34;95849.81;5025995;28;20235;-78
2020/12/20 08:31:33;;;;;;;5.50;3.60;;;;;;;5.85;78.36;95853.13;5070985;28;20180;-78
2020/12/20 08:33:59;;;;;;;5.57;3.73;;;;;;;5.84;79.01;95854.88;5073610;28;20196;-78
2020/12/20 08:36:26;;;;;;;4.20;3.63;;;;;;;5.89;78.42;95852.78;5089674;28;20180;-78
2020/12/20 08:38:52;;;;;;;8.00;3.53;;;;;;;6.00;78.39;95856.34;5058386;28;20172;-78
2020/12/20 08:41:25;;;;;;;6.43;3.43;;;;;;;6.00;78.09;95856.34;5067495;28;20187;-78
2020/12/20 08:44:11;;;;;;;5.37;3.33;;;;;;;6.05;78.15;95855.09;5077949;28;20188;-77
2020/12/20 08:46:41;;;;;;;5.70;3.93;;;;;;;6.12;77.02;95853.72;5063409;28;20204;-77
2020/12/20 08:49:18;;;;;;;6.60;4.13;;;;;;;6.13;76.99;95857.13;5053153;28;20702;-79
2020/12/20 08:51:44;;;;;;;5.50;3.90;;;;;;;6.22;77.32;95861.59;5071941;28;20173;-79
2020/12/20 08:54:13;;;;;;;9.17;7.43;;;;;;;6.24;76.86;95864.88;5073247;28;20192;-79
2020/12/20 08:56:55;;;;;;;6.70;6.00;;;;;;;6.29;77.04;95862.78;5090149;28;20364;-79
2020/12/20 08:59:26;;;;;;;6.13;4.73;;;;;;;6.36;76.76;95863.97;5073074;28;20188;-78
2020/12/20 09:01:51;;;;;;;6.90;4.47;;;;;;;6.43;76.69;95859.16;5055333;28;20267;-79
2020/12/20 09:04:17;;;;;;;6.20;4.63;;;;;;;6.47;76.77;95858.00;5091083;28;20244;-78
2020/12/20 09:06:42;;;;;;;5.40;4.40;;;;;;;6.47;76.61;95856.25;5073240;28;20172;-78
2020/12/20 09:09:13;;;;;;;4.27;3.33;;;;;;;6.55;76.73;95862.59;5072595;28;20559;-79
2020/12/20 09:11:38;;;;;;;6.33;3.93;;;;;;;6.61;76.51;95868.09;5073232;28;20586;-78
2020/12/20 09:14:09;;;;;;;6.80;4.93;;;;;;;6.65;76.44;95869.53;5070927;28;20200;-79
2020/12/20 09:16:40;;;;;;;6.47;4.67;;;;;;;6.83;74.86;95872.47;5065538;28;20663;-78
2020/12/20 09:19:12;;;;;;;6.90;4.93;;;;;;;6.77;73.31;95868.59;5094544;28;20444;-79
2020/12/20 09:21:37;;;;;;;4.47;4.07;;;;;;;6.79;74.06;95865.88;5059961;28;20180;-77
2020/12/20 09:24:02;;;;;;;5.47;4.47;;;;;;;6.79;74.03;95868.47;5058788;28;20262;-78
2020/12/20 09:26:28;;;;;;;8.47;7.63;;;;;;;6.75;74.57;95867.06;5059751;28;20195;-77
2020/12/20 09:28:53;;;;;;;8.73;7.53;;;;;;;6.75;74.37;95865.31;5075871;28;20224;-78
2020/12/20 09:31:20;;;;;;;8.20;7.20;;;;;;;6.84;74.59;95873.31;5076450;28;20187;-78
2020/12/20 09:33:49;;;;;;;7.77;6.93;;;;;;;6.89;74.87;95873.75;5074372;28;20176;-78
2020/12/20 09:36:22;;;;;;;10.07;8.10;;;;;;;6.92;74.77;95878.69;5094156;28;20230;-79
2020/12/20 09:38:49;;;;;;;12.13;10.13;;;;;;;6.97;74.97;95879.97;5075112;28;20177;-79
2020/12/20 09:41:16;;;;;;;9.27;7.40;;;;;;;7.16;74.34;95882.00;5072831;28;20188;-78
2020/12/20 09:43:42;;;;;;;5.00;4.50;;;;;;;7.13;72.68;95874.47;5056096;28;20643;-78
2020/12/20 09:46:09;;;;;;;4.80;4.30;;;;;;;7.16;72.39;95881.16;5087174;28;20168;-78
2020/12/20 09:48:34;;;;;;;5.13;4.20;;;;;;;7.02;72.21;95882.22;5082942;28;20238;-79
2020/12/20 09:51:00;;;;;;;5.47;4.80;;;;;;;6.92;71.86;95883.88;5055770;28;20575;-78
2020/12/20 09:53:25;;;;;;;6.50;4.80;;;;;;;6.82;72.13;95883.75;5039215;28;20185;-78
2020/12/20 09:55:50;;;;;;;5.47;4.23;;;;;;;6.85;72.25;95888.66;5058043;28;20672;-79
2020/12/20 09:58:16;;;;;;;5.57;4.07;;;;;;;6.91;72.31;95880.47;5091132;28;20648;-78
2020/12/20 10:00:43;;;;;;;6.23;4.60;;;;;;;6.99;72.24;95880.69;5059064;28;20172;-78
2020/12/20 10:03:09;;;;;;;5.50;4.40;;;;;;;7.09;72.28;95885.97;5076440;28;20204;-77
2020/12/20 10:05:34;;;;;;;8.13;5.17;;;;;;;7.11;73.94;95897.00;5058379;28;20192;-80
2020/12/20 10:08:00;;;;;;;8.17;6.03;;;;;;;7.25;73.38;95896.78;5058690;28;20199;-79
2020/12/20 10:10:25;;;;;;;15.10;9.83;;;;;;;7.27;74.07;95891.50;5071890;28;20177;-79
2020/12/20 10:12:51;;;;;;;9.03;7.13;;;;;;;7.28;73.97;95895.72;5055755;28;20260;-78
2020/12/20 10:15:17;;;;;;;9.87;6.70;;;;;;;7.38;74.03;95889.69;5055789;28;20680;-79
2020/12/20 10:17:42;;;;;;;6.73;5.33;;;;;;;7.41;74.29;95898.16;5066564;28;20264;-78
2020/12/20 10:20:07;;;;;;;5.30;3.90;;;;;;;7.44;73.96;95896.16;5075309;28;20679;-77
2020/12/20 10:22:33;;;;;;;15.00;8.43;;;;;;;7.52;74.00;95886.06;5075730;28;20168;-78
2020/12/20 10:24:58;;;;;;;24.63;13.27;;;;;;;7.54;74.31;95894.50;5093431;28;20355;-78
2020/12/20 10:27:23;;;;;;;11.63;7.77;;;;;;;7.62;73.81;95894.72;5090826;28;20272;-77
2020/12/20 10:29:49;;;;;;;12.00;6.40;;;;;;;7.69;73.69;95902.00;5071128;28;20305;-78
2020/12/20 10:32:14;;;;;;;5.20;4.70;;;;;;;7.64;73.64;95903.16;5055327;28;20181;-79
2020/12/20 10:34:40;;;;;;;4.50;3.87;;;;;;;7.55;73.70;95905.66;5055074;28;20197;-77
2020/12/20 10:37:06;;;;;;;4.67;3.53;;;;;;;7.49;74.07;95906.13;5038352;28;20178;-77
2020/12/20 10:39:31;;;;;;;4.50;3.53;;;;;;;7.39;73.98;95906.03;5090729;28;20175;-77
2020/12/20 10:41:56;;;;;;;5.73;3.63;;;;;;;7.36;73.83;95901.94;5074992;28;20548;-77
2020/12/20 10:44:22;;;;;;;4.20;3.27;;;;;;;7.39;73.85;95896.50;5074858;28;20202;-77
2020/12/20 10:46:51;;;;;;;5.03;3.20;;;;;;;7.49;73.55;95894.03;5075105;28;20165;-77
2020/12/20 10:49:17;;;;;;;8.33;3.90;;;;;;;7.53;73.34;95892.84;5069497;28;20720;-77
2020/12/20 10:51:43;;;;;;;4.57;3.43;;;;;;;7.68;72.61;95890.81;5091558;28;20176;-77
2020/12/20 10:54:08;;;;;;;9.53;7.93;;;;;;;7.84;72.17;95886.06;5074548;28;20286;-78
2020/12/20 10:56:34;;;;;;;7.33;6.43;;;;;;;7.95;72.03;95898.13;5074836;28;20175;-78
2020/12/20 10:58:59;;;;;;;6.33;4.90;;;;;;;8.11;71.02;95893.38;5090461;28;20181;-79
2020/12/20 11:01:24;;;;;;;7.03;4.77;;;;;;;8.14;70.24;95897.50;5074613;28;20188;-78
2020/12/20 11:03:50;;;;;;;5.57;3.60;;;;;;;8.22;70.76;95889.94;5091409;28;20183;-76
2020/12/20 11:06:17;;;;;;;5.50;3.87;;;;;;;8.32;71.00;95895.19;5074277;28;20290;-78
2020/12/20 11:08:42;;;;;;;4.00;3.60;;;;;;;8.28;71.51;95892.00;5072233;28;20200;-79
2020/12/20 11:11:08;;;;;;;4.47;3.03;;;;;;;8.29;71.94;95892.81;5092423;28;20177;-78
2020/12/20 11:13:33;;;;;;;4.80;2.97;;;;;;;8.32;72.10;95890.00;5074581;28;20252;-79
2020/12/20 11:15:58;;;;;;;4.27;3.50;;;;;;;8.34;72.30;95901.88;5057587;28;20176;-77
2020/12/20 11:18:24;;;;;;;3.77;3.13;;;;;;;8.38;72.19;95892.94;5072895;28;20173;-78
2020/12/20 11:20:49;;;;;;;4.17;3.63;;;;;;;8.27;72.45;95886.97;5091834;28;20177;-77
2020/12/20 11:23:14;;;;;;;6.53;4.70;;;;;;;8.27;72.89;95887.78;5074193;28;20182;-77
2020/12/20 11:25:39;;;;;;;6.40;4.10;;;;;;;8.19;73.20;95885.81;5074249;28;20234;-79
2020/12/20 11:28:05;;;;;;;4.57;3.30;;;;;;;8.34;73.00;95880.34;5057317;28;20627;-77
2020/12/20 11:30:30;;;;;;;5.83;4.20;;;;;;;8.46;72.72;95881.94;5082021;28;20192;-77
2020/12/20 11:32:55;;;;;;;5.17;3.53;;;;;;;8.42;73.06;95883.16;5057339;28;20187;-77
2020/12/20 11:35:21;;;;;;;5.57;3.40;;;;;;;8.47;73.22;95878.41;5073906;28;20197;-78
2020/12/20 11:37:46;;;;;;;4.93;3.30;;;;;;;8.37;72.70;95877.53;5073032;28;20610;-78
2020/12/20 11:40:11;;;;;;;11.43;6.43;;;;;;;8.40;72.18;95866.94;5070108;28;20169;-77
2020/12/20 11:42:37;;;;;;;5.50;4.07;;;;;;;8.51;71.73;95874.63;5071944;28;20177;-78